Time;durP1;ratioP1;P1;durP2;ratioP2;P2;SDS_P1;SDS_P2;PMS_P1;PMS_P2;Temp;Humidity;BMP_temperature;BMP_pressure;BME280_temperature;BME280_humidity;BME280_pressure;Samples;Min_cycle;Max_cycle;Signal;HPM_P1;HPM_P2
2022/09/15 00:01:39;;;;;;;12.38;3.55;;;13.00;99.90;;;;;;5037204;28;20045;-23
2022/09/15 00:04:06;;;;;;;7.43;1.95;;;13.00;99.90;;;;;;5037199;28;20053;-24
2022/09/15 00:06:33;;;;;;;8.15;2.25;;;13.10;99.90;;;;;;5019083;28;20060;-24
2022/09/15 00:08:59;;;;;;;8.52;1.75;;;13.10;99.90;;;;;;5037074;28;20047;-25
2022/09/15 00:11:30;;;;;;;12.80;1.85;;;13.40;99.90;;;;;;5036953;28;20045;-25
2022/09/15 00:13:58;;;;;;;3.55;1.00;;;13.50;99.90;;;;;;5037074;28;20056;-25
2022/09/15 00:16:26;;;;;;;9.85;1.00;;;13.50;99.90;;;;;;5036900;28;20041;-25
2022/09/15 00:18:52;;;;;;;6.30;1.27;;;13.30;1.00;;;;;;5036890;28;20092;-25
2022/09/15 00:21:21;;;;;;;5.07;1.13;;;13.60;99.90;;;;;;5036829;28;20041;-25
2022/09/15 00:23:47;;;;;;;7.15;1.00;;;13.70;99.90;;;;;;5037628;28;20369;-25
2022/09/15 00:26:16;;;;;;;6.57;1.42;;;13.50;99.90;;;;;;5036747;28;20092;-25
2022/09/15 00:28:42;;;;;;;6.50;1.23;;;13.60;99.90;;;;;;5035772;28;20056;-25
2022/09/15 00:31:11;;;;;;;9.15;1.17;;;13.50;99.90;;;;;;5036584;28;20495;-25
2022/09/15 00:33:37;;;;;;;4.72;1.00;;;13.80;99.90;;;;;;5037420;28;20052;-25
2022/09/15 00:36:05;;;;;;;9.60;1.13;;;13.40;99.90;;;;;;5037140;28;20396;-25
2022/09/15 00:38:33;;;;;;;9.43;1.17;;;13.50;99.90;;;;;;5036550;28;20081;-25
2022/09/15 00:41:00;;;;;;;10.82;1.25;;;13.60;1.00;;;;;;5036396;28;20064;-25
2022/09/15 00:43:55;;;;;;;5.55;1.10;;;13.50;1.00;;;;;;5036448;28;20057;-25
2022/09/15 00:46:28;;;;;;;6.97;1.13;;;13.30;1.00;;;;;;5034893;28;20523;-25
2022/09/15 00:49:12;;;;;;;6.07;1.13;;;13.30;1.00;;;;;;5036234;28;20483;-25
2022/09/15 00:51:59;;;;;;;9.18;1.27;;;13.40;1.00;;;;;;5036037;28;20057;-25
2022/09/15 00:54:45;;;;;;;6.68;1.33;;;13.40;1.00;;;;;;5035119;28;20045;-25
2022/09/15 00:57:20;;;;;;;4.03;0.70;;;13.30;1.00;;;;;;5036211;28;20499;-25
2022/09/15 00:59:48;;;;;;;7.53;1.23;;;13.40;1.00;;;;;;5037033;28;20049;-24
2022/09/15 01:02:33;;;;;;;3.88;0.88;;;13.50;1.00;;;;;;5036069;28;20550;-25
2022/09/15 01:05:00;;;;;;;6.60;0.98;;;13.40;1.00;;;;;;5035935;28;20128;-26
2022/09/15 01:07:56;;;;;;;4.57;0.63;;;13.30;99.90;;;;;;5035071;28;20045;-25
2022/09/15 01:10:33;;;;;;;6.93;0.90;;;13.40;99.90;;;;;;5036537;28;20061;-25
2022/09/15 01:13:02;;;;;;;9.02;1.92;;;13.50;99.90;;;;;;5036232;28;20140;-26
2022/09/15 01:15:52;;;;;;;5.15;0.90;;;13.40;99.90;;;;;;5036106;28;20467;-25
2022/09/15 01:18:52;;;;;;;7.40;1.20;;;13.30;87.70;;;;;;5035539;28;20045;-23
2022/09/15 01:21:42;;;;;;;10.55;1.25;;;13.30;62.90;;;;;;5035800;28;20072;-24
2022/09/15 01:24:19;;;;;;;5.38;1.13;;;13.20;99.90;;;;;;5036311;28;20041;-26
2022/09/15 01:27:06;;;;;;;3.03;0.80;;;13.20;99.90;;;;;;5035999;28;20081;-26
2022/09/15 01:29:53;;;;;;;3.55;0.70;;;13.10;99.90;;;;;;5035741;28;20102;-25
2022/09/15 01:35:50;;;;;;;5.25;0.95;;;13.00;99.90;;;;;;5035514;28;20115;-25
2022/09/15 01:38:40;;;;;;;6.65;1.05;;;12.90;99.90;;;;;;5036044;28;20056;-25
2022/09/15 01:41:25;;;;;;;12.43;2.15;;;13.00;48.20;;;;;;5035268;28;20499;-25
2022/09/15 01:43:58;;;;;;;7.32;0.68;;;13.20;1.00;;;;;;5035942;28;20404;-26
2022/09/15 01:46:26;;;;;;;6.15;0.95;;;13.40;99.90;;;;;;5035232;28;20064;-27
2022/09/15 01:48:55;;;;;;;13.05;1.80;;;13.80;1.00;;;;;;5035058;28;20049;-26
2022/09/15 01:51:22;;;;;;;10.27;1.25;;;14.00;1.00;;;;;;5035094;28;20042;-26
2022/09/15 01:53:51;;;;;;;12.48;1.70;;;14.00;99.90;;;;;;5034190;28;20072;-26
2022/09/15 01:56:17;;;;;;;14.13;1.70;;;14.00;1.00;;;;;;5033830;28;20450;-26
2022/09/15 01:58:42;;;;;;;10.90;1.73;;;13.90;1.00;;;;;;5033832;28;20053;-26
2022/09/15 02:01:13;;;;;;;9.93;2.03;;;13.90;1.00;;;;;;5035023;28;20128;-26
2022/09/15 02:03:48;;;;;;;6.90;1.10;;;13.90;1.00;;;;;;5034279;28;20047;-26
2022/09/15 02:06:46;;;;;;;6.47;1.35;;;13.80;1.00;;;;;;5034905;28;20045;-25
2022/09/15 02:09:27;;;;;;;4.60;1.27;;;13.70;99.90;;;;;;5033935;28;20049;-25
2022/09/15 02:12:11;;;;;;;6.35;1.20;;;13.70;1.00;;;;;;5017860;28;20041;-26
2022/09/15 02:15:02;;;;;;;8.48;1.00;;;13.60;1.00;;;;;;5034192;28;20056;-27
2022/09/15 02:17:30;;;;;;;11.15;1.00;;;13.50;12.20;;;;;;5034339;28;20141;-26
2022/09/15 02:20:09;;;;;;;12.20;1.30;;;13.40;99.90;;;;;;5034641;28;20088;-26
2022/09/15 02:22:39;;;;;;;10.15;1.67;;;13.40;99.90;;;;;;5034680;28;20050;-26
2022/09/15 02:25:10;;;;;;;8.43;1.23;;;13.40;99.90;;;;;;5035339;28;20045;-25
2022/09/15 02:27:43;;;;;;;5.88;1.02;;;13.50;99.90;;;;;;5035065;28;20155;-26
2022/09/15 02:30:11;;;;;;;6.60;1.10;;;13.60;99.90;;;;;;5035065;28;20049;-26
2022/09/15 02:32:45;;;;;;;6.05;0.93;;;13.40;56.20;;;;;;5033130;28;20060;-26
2022/09/15 02:35:13;;;;;;;9.40;1.83;;;13.40;32.50;;;;;;5033984;28;20045;-26
2022/09/15 02:37:39;;;;;;;12.65;1.63;;;13.50;77.60;;;;;;5034869;28;20103;-26
2022/09/15 02:40:06;;;;;;;14.80;1.55;;;13.40;91.40;;;;;;5034251;28;20166;-26
2022/09/15 02:42:32;;;;;;;8.30;1.00;;;13.30;94.10;;;;;;5032592;28;20484;-26
2022/09/15 02:45:00;;;;;;;7.45;1.05;;;13.20;99.90;;;;;;5033238;28;20052;-26
2022/09/15 02:47:27;;;;;;;8.93;1.20;;;13.20;91.00;;;;;;5033066;28;20387;-26
2022/09/15 02:49:53;;;;;;;9.45;1.77;;;13.20;99.90;;;;;;5034091;28;20570;-26
2022/09/15 02:52:19;;;;;;;8.95;1.27;;;13.10;99.90;;;;;;5033996;28;20124;-26
2022/09/15 02:54:45;;;;;;;7.13;0.88;;;13.00;99.90;;;;;;5033912;28;20136;-26
2022/09/15 02:57:12;;;;;;;9.00;1.17;;;13.00;99.90;;;;;;5034563;28;20042;-27
2022/09/15 03:02:23;;;;;;;7.45;1.40;;;12.90;99.90;;;;;;5033976;28;20060;-26
2022/09/15 03:04:49;;;;;;;7.95;0.98;;;12.90;99.90;;;;;;5033887;28;20048;-26
2022/09/15 03:07:16;;;;;;;7.60;0.82;;;13.10;99.90;;;;;;5034414;28;20045;-26
2022/09/15 03:09:42;;;;;;;8.38;1.10;;;12.90;99.90;;;;;;5034117;28;20103;-26
2022/09/15 03:12:08;;;;;;;9.63;0.90;;;12.90;99.90;;;;;;5033718;28;20045;-26
2022/09/15 03:14:34;;;;;;;10.95;1.02;;;12.80;99.90;;;;;;5033845;28;20045;-26
2022/09/15 03:17:03;;;;;;;9.23;1.15;;;12.80;99.90;;;;;;5032368;28;20141;-26
2022/09/15 03:19:28;;;;;;;6.15;0.93;;;12.90;99.90;;;;;;5033582;28;20049;-26
2022/09/15 03:21:54;;;;;;;9.50;1.63;;;12.80;99.90;;;;;;5033690;28;20041;-26
2022/09/15 03:24:21;;;;;;;3.70;0.50;;;12.80;99.90;;;;;;5032471;28;20096;-25
2022/09/15 03:26:47;;;;;;;7.63;0.90;;;12.70;99.90;;;;;;5033704;28;20450;-25
2022/09/15 03:29:13;;;;;;;6.07;0.95;;;12.70;99.90;;;;;;5033462;28;20045;-26
2022/09/15 03:31:39;;;;;;;5.97;1.10;;;12.70;99.90;;;;;;5034100;28;20395;-27
2022/09/15 03:34:05;;;;;;;9.93;1.40;;;13.00;15.10;;;;;;5016216;28;20054;-26
2022/09/15 03:36:30;;;;;;;4.68;0.70;;;12.90;1.00;;;;;;5033256;28;20056;-26
2022/09/15 03:38:57;;;;;;;9.00;0.80;;;12.90;1.00;;;;;;5033541;28;20045;-26
2022/09/15 03:41:24;;;;;;;4.65;0.98;;;12.90;1.00;;;;;;5033522;28;20068;-26
2022/09/15 03:43:50;;;;;;;7.03;1.05;;;12.80;1.00;;;;;;5032553;28;20092;-26
2022/09/15 03:46:16;;;;;;;7.38;1.13;;;12.90;99.90;;;;;;5032429;28;20048;-26
2022/09/15 03:48:42;;;;;;;8.90;1.38;;;12.90;99.90;;;;;;5033743;28;20049;-26
2022/09/15 03:51:09;;;;;;;12.57;1.38;;;13.00;99.90;;;;;;5033348;28;20049;-26
2022/09/15 03:53:37;;;;;;;8.68;0.93;;;13.10;99.90;;;;;;5032193;28;20046;-26
2022/09/15 03:56:23;;;;;;;9.27;1.13;;;13.00;1.00;;;;;;5033203;28;20551;-26
2022/09/15 03:58:50;;;;;;;7.25;1.13;;;13.00;1.00;;;;;;5016778;28;20057;-26
2022/09/15 04:01:17;;;;;;;9.18;1.20;;;12.80;1.00;;;;;;5033333;28;20128;-26
2022/09/15 04:03:43;;;;;;;9.43;1.48;;;13.10;99.90;;;;;;5033864;28;20054;-26
2022/09/15 04:06:09;;;;;;;5.00;1.27;;;13.00;99.90;;;;;;5015636;28;20045;-26
2022/09/15 04:08:35;;;;;;;8.43;1.33;;;13.30;99.90;;;;;;5033233;28;20045;-26
2022/09/15 04:11:09;;;;;;;9.70;1.55;;;13.20;99.90;;;;;;5033207;28;20041;-26
2022/09/15 04:13:36;;;;;;;6.80;1.02;;;13.30;1.00;;;;;;5033842;28;20381;-26
2022/09/15 04:16:08;;;;;;;10.23;1.77;;;13.30;13.10;;;;;;5031947;28;20137;-27
2022/09/15 04:18:34;;;;;;;6.35;1.02;;;13.40;1.00;;;;;;5033190;28;20057;-26
2022/09/15 04:21:02;;;;;;;5.90;1.08;;;13.40;1.00;;;;;;5033721;28;20163;-26
2022/09/15 04:23:28;;;;;;;6.63;0.90;;;13.50;1.00;;;;;;5033712;28;20080;-26
2022/09/15 04:26:03;;;;;;;7.88;1.00;;;13.50;1.00;;;;;;5015656;28;20368;-26
2022/09/15 04:28:34;;;;;;;6.15;0.93;;;13.50;1.00;;;;;;5035756;28;20042;-26
2022/09/15 04:31:09;;;;;;;10.60;1.70;;;13.60;1.00;;;;;;5036759;28;20075;-26
2022/09/15 04:33:36;;;;;;;16.15;3.10;;;13.60;1.00;;;;;;5037144;28;20060;-26
2022/09/15 04:36:08;;;;;;;4.35;0.60;;;13.60;24.10;;;;;;5036593;28;20047;-25
2022/09/15 04:38:34;;;;;;;11.85;1.60;;;13.50;1.00;;;;;;5036667;28;20049;-26
2022/09/15 04:41:01;;;;;;;9.05;1.20;;;13.50;1.00;;;;;;5036823;28;20049;-26
2022/09/15 04:43:27;;;;;;;7.70;0.93;;;13.70;72.60;;;;;;5037268;28;20049;-26
2022/09/15 04:45:54;;;;;;;12.50;0.95;;;13.50;96.80;;;;;;5037136;28;20045;-26
2022/09/15 04:48:21;;;;;;;7.85;1.10;;;13.60;36.20;;;;;;5036051;28;20411;-26
2022/09/15 04:50:47;;;;;;;8.63;0.85;;;13.40;99.90;;;;;;5036210;28;20132;-26
2022/09/15 04:53:13;;;;;;;6.00;0.70;;;13.40;99.90;;;;;;5036211;28;20132;-27
2022/09/15 04:55:38;;;;;;;7.53;1.23;;;13.30;99.90;;;;;;5035965;28;20498;-26
2022/09/15 04:58:04;;;;;;;7.68;1.40;;;13.30;99.90;;;;;;5036180;28;20045;-26
2022/09/15 05:00:33;;;;;;;10.05;1.15;;;13.10;99.90;;;;;;5036177;28;20049;-26
2022/09/15 05:02:59;;;;;;;6.32;1.08;;;13.00;99.90;;;;;;5034870;28;20455;-26
2022/09/15 05:05:25;;;;;;;7.93;0.82;;;12.90;99.90;;;;;;5035185;28;20483;-26
2022/09/15 05:07:51;;;;;;;5.70;1.52;;;12.90;99.90;;;;;;5035712;28;20501;-26
2022/09/15 05:10:18;;;;;;;5.78;0.85;;;12.40;1.00;;;;;;5035973;28;20049;-26
2022/09/15 05:12:44;;;;;;;5.43;0.77;;;12.30;1.00;;;;;;5036704;28;20053;-26
2022/09/15 05:15:11;;;;;;;7.03;1.13;;;12.10;1.00;;;;;;5035939;28;20052;-25
2022/09/15 05:17:37;;;;;;;7.07;0.88;;;11.80;50.10;;;;;;5036700;28;20041;-25
2022/09/15 05:20:03;;;;;;;7.43;0.68;;;12.00;99.90;;;;;;5035818;28;20052;-25
2022/09/15 05:22:30;;;;;;;5.45;0.82;;;11.80;99.90;;;;;;5035772;28;20050;-26
2022/09/15 05:24:55;;;;;;;7.70;0.73;;;12.10;99.90;;;;;;5034474;28;20046;-26
2022/09/15 05:27:21;;;;;;;8.38;0.98;;;12.10;41.20;;;;;;5035952;28;20049;-26
2022/09/15 05:29:47;;;;;;;10.10;0.90;;;12.00;33.20;;;;;;5034494;28;20049;-26
2022/09/15 05:32:13;;;;;;;7.30;0.70;;;12.00;81.10;;;;;;5034258;28;20529;-25
2022/09/15 05:34:39;;;;;;;7.05;0.75;;;12.20;99.90;;;;;;5035817;28;20060;-25
2022/09/15 05:37:05;;;;;;;4.43;0.50;;;12.10;99.90;;;;;;5035495;28;20487;-25
2022/09/15 05:39:31;;;;;;;5.00;0.70;;;12.30;99.90;;;;;;5033920;28;20037;-26
2022/09/15 05:41:56;;;;;;;6.63;0.88;;;12.00;99.90;;;;;;5036116;28;20063;-26
2022/09/15 05:44:22;;;;;;;7.30;0.82;;;12.10;99.90;;;;;;5034652;28;20059;-26
2022/09/15 05:46:48;;;;;;;7.55;1.02;;;11.90;99.90;;;;;;5034242;28;20579;-25
2022/09/15 05:49:14;;;;;;;5.45;0.80;;;12.00;99.90;;;;;;5034325;28;20057;-26
2022/09/15 05:51:40;;;;;;;4.65;0.98;;;12.10;99.90;;;;;;5035165;28;20484;-26
2022/09/15 05:54:06;;;;;;;14.43;0.90;;;12.20;99.90;;;;;;5017980;28;20053;-26
2022/09/15 05:56:32;;;;;;;7.78;1.02;;;12.40;99.90;;;;;;5035160;28;20049;-26
2022/09/15 05:58:58;;;;;;;6.90;1.33;;;12.50;99.90;;;;;;5035608;28;20038;-26
2022/09/15 06:01:28;;;;;;;10.82;1.27;;;12.50;99.90;;;;;;5033800;28;20439;-26
2022/09/15 06:03:56;;;;;;;6.32;1.45;;;12.70;99.90;;;;;;5035559;28;20388;-26
2022/09/15 06:06:22;;;;;;;8.27;2.08;;;12.80;68.60;;;;;;5034912;28;20049;-25
2022/09/15 06:08:50;;;;;;;7.57;1.10;;;13.20;1.00;;;;;;5034194;28;20099;-26
2022/09/15 06:11:18;;;;;;;3.75;0.65;;;13.20;1.00;;;;;;5034771;28;20041;-26
2022/09/15 06:13:45;;;;;;;5.47;0.73;;;13.50;99.90;;;;;;5035055;28;20049;-26
2022/09/15 06:16:19;;;;;;;5.30;0.75;;;13.50;1.00;;;;;;5033512;28;20054;-27
2022/09/15 06:18:46;;;;;;;4.22;0.63;;;13.70;1.00;;;;;;5034296;28;20132;-26
2022/09/15 06:21:24;;;;;;;3.38;0.57;;;13.90;99.90;;;;;;5034641;28;20049;-26
2022/09/15 06:23:58;;;;;;;4.40;0.52;;;14.20;99.90;;;;;;5034616;28;20586;-26
2022/09/15 06:26:25;;;;;;;3.45;0.40;;;14.20;1.00;;;;;;5035079;28;20049;-26
2022/09/15 06:28:59;;;;;;;2.10;0.40;;;14.40;99.90;;;;;;5034480;28;20056;-26
2022/09/15 06:31:27;;;;;;;1.95;0.25;;;14.50;99.90;;;;;;5034407;28;20103;-26
2022/09/15 06:33:54;;;;;;;5.22;0.60;;;14.40;99.90;;;;;;5034405;28;20136;-26
2022/09/15 06:36:22;;;;;;;4.07;0.50;;;14.40;99.90;;;;;;5034639;28;20046;-26
2022/09/15 06:38:48;;;;;;;5.47;0.22;;;14.40;1.00;;;;;;5034880;28;20049;-26
2022/09/15 06:41:14;;;;;;;3.30;0.30;;;14.40;1.00;;;;;;5034002;28;20061;-26
2022/09/15 06:43:40;;;;;;;2.40;0.30;;;14.40;99.90;;;;;;5016577;28;20136;-26
2022/09/15 06:46:12;;;;;;;11.13;1.20;;;14.50;99.90;;;;;;5034071;28;20045;-26
2022/09/15 06:48:40;;;;;;;1.40;0.10;;;14.50;99.90;;;;;;5033840;28;20488;-26
2022/09/15 06:51:07;;;;;;;11.73;1.13;;;14.50;99.90;;;;;;5034445;28;20077;-26
2022/09/15 06:53:35;;;;;;;4.35;0.88;;;14.60;99.90;;;;;;5034679;28;20084;-26
2022/09/15 06:56:02;;;;;;;2.78;0.28;;;14.60;99.90;;;;;;5034112;28;20403;-26
2022/09/15 06:58:29;;;;;;;7.50;0.57;;;14.50;99.90;;;;;;5033639;28;20124;-26
2022/09/15 07:00:59;;;;;;;4.90;0.60;;;14.70;99.90;;;;;;5034795;28;20041;-26
2022/09/15 07:03:24;;;;;;;4.05;0.63;;;14.60;1.00;;;;;;5016528;28;20132;-26
2022/09/15 07:05:50;;;;;;;6.10;0.80;;;14.70;1.00;;;;;;5033963;28;20127;-26
2022/09/15 07:08:15;;;;;;;5.18;0.70;;;14.90;1.00;;;;;;5033856;28;20085;-26
2022/09/15 07:10:43;;;;;;;5.97;0.82;;;15.10;1.00;;;;;;5033775;28;20050;-26
2022/09/15 07:13:09;;;;;;;10.52;1.42;;;15.30;1.00;;;;;;5033473;28;20495;-26
2022/09/15 07:15:35;;;;;;;7.53;1.27;;;15.30;99.90;;;;;;5034346;28;20041;-26
2022/09/15 07:18:00;;;;;;;6.88;0.90;;;15.30;99.90;;;;;;5033749;28;20055;-26
2022/09/15 07:20:26;;;;;;;6.97;0.98;;;15.30;1.00;;;;;;5032556;28;20119;-26
2022/09/15 07:22:52;;;;;;;8.40;1.27;;;15.10;99.90;;;;;;5032487;28;20045;-26
2022/09/15 07:25:17;;;;;;;4.45;0.65;;;15.10;1.00;;;;;;5033037;28;20076;-26
2022/09/15 07:27:43;;;;;;;8.07;0.93;;;15.00;99.90;;;;;;5034486;28;20049;-26
2022/09/15 07:30:10;;;;;;;8.68;1.58;;;15.20;99.90;;;;;;5032595;28;20072;-26
2022/09/15 07:32:36;;;;;;;4.55;0.90;;;15.10;99.90;;;;;;5034053;28;20357;-26
2022/09/15 07:35:02;;;;;;;4.05;0.57;;;15.20;99.90;;;;;;5033585;28;20048;-26
2022/09/15 07:37:28;;;;;;;8.10;1.20;;;15.10;99.90;;;;;;5033510;28;20560;-26
2022/09/15 07:39:53;;;;;;;6.35;0.82;;;15.10;99.90;;;;;;5034070;28;20093;-26
2022/09/15 07:42:19;;;;;;;4.88;0.90;;;15.10;99.90;;;;;;5031889;28;20128;-26
2022/09/15 07:44:45;;;;;;;5.70;0.75;;;15.10;99.90;;;;;;5033160;28;20050;-26
2022/09/15 07:47:10;;;;;;;6.07;0.73;;;15.10;1.00;;;;;;5033259;28;20060;-26
2022/09/15 07:49:36;;;;;;;6.07;0.60;;;15.20;99.90;;;;;;5033446;28;20056;-26
2022/09/15 07:52:01;;;;;;;4.75;0.80;;;15.20;1.00;;;;;;5033861;28;20044;-26
2022/09/15 07:54:27;;;;;;;7.53;0.93;;;15.30;1.00;;;;;;5032231;28;20099;-26
2022/09/15 07:56:53;;;;;;;9.50;1.00;;;15.40;99.90;;;;;;5033443;28;20046;-26
2022/09/15 07:59:19;;;;;;;8.65;0.90;;;15.40;1.00;;;;;;5032164;28;20088;-26
2022/09/15 08:01:45;;;;;;;9.63;1.15;;;15.70;1.00;;;;;;5033623;28;20048;-26
2022/09/15 08:04:11;;;;;;;6.53;1.23;;;15.60;1.00;;;;;;5037213;28;20487;-27
2022/09/15 08:06:36;;;;;;;11.27;2.08;;;15.90;75.50;;;;;;5036818;28;20061;-26
2022/09/15 08:09:02;;;;;;;6.95;0.60;;;16.00;70.70;;;;;;5036257;28;20049;-26
2022/09/15 08:11:28;;;;;;;5.20;1.02;;;16.00;92.80;;;;;;5037019;28;20486;-26
2022/09/15 08:13:54;;;;;;;6.30;1.00;;;15.80;2.30;;;;;;5037650;28;20045;-27
2022/09/15 08:16:23;;;;;;;4.93;0.80;;;15.90;96.20;;;;;;5037050;28;20042;-26
2022/09/15 08:18:50;;;;;;;3.53;0.77;;;15.60;99.90;;;;;;5037564;28;20057;-26
2022/09/15 08:21:19;;;;;;;6.38;0.90;;;15.60;99.90;;;;;;5035918;28;20546;-26
2022/09/15 08:23:49;;;;;;;7.10;1.20;;;15.70;99.90;;;;;;5036913;28;20042;-26
2022/09/15 08:26:14;;;;;;;10.45;1.55;;;15.70;99.90;;;;;;5037390;28;20060;-26
2022/09/15 08:28:41;;;;;;;8.75;0.90;;;15.80;1.00;;;;;;5020199;28;20045;-26
2022/09/15 08:31:08;;;;;;;7.38;1.00;;;16.30;17.50;;;;;;5036662;28;20041;-26
2022/09/15 08:33:34;;;;;;;5.85;0.95;;;16.30;1.00;;;;;;5035718;28;20053;-26
2022/09/15 08:36:03;;;;;;;5.88;1.30;;;16.40;99.90;;;;;;5035376;28;20048;-26
2022/09/15 08:38:29;;;;;;;8.20;0.98;;;16.30;99.90;;;;;;5036275;28;20479;-26
2022/09/15 08:41:21;;;;;;;9.32;1.17;;;16.40;99.90;;;;;;5037090;28;20045;-26
2022/09/15 08:43:51;;;;;;;6.68;1.13;;;16.30;99.90;;;;;;5033685;28;20054;-26
2022/09/15 08:46:22;;;;;;;7.93;1.30;;;16.30;99.90;;;;;;5036974;28;20041;-26
2022/09/15 08:48:58;;;;;;;6.90;0.95;;;16.20;1.00;;;;;;5035794;28;20049;-26
2022/09/15 08:51:39;;;;;;;9.25;1.48;;;16.20;1.00;;;;;;5035958;28;20095;-26
2022/09/15 08:54:11;;;;;;;6.13;1.00;;;16.00;1.00;;;;;;5036926;28;20095;-27
2022/09/15 08:56:38;;;;;;;7.15;1.75;;;16.00;1.00;;;;;;5036163;28;20064;-26
2022/09/15 08:59:04;;;;;;;9.63;1.77;;;16.50;1.00;;;;;;5035911;28;20504;-26
2022/09/15 09:01:40;;;;;;;6.85;1.70;;;16.50;1.00;;;;;;5036230;28;20052;-26
2022/09/15 09:04:31;;;;;;;10.80;1.98;;;16.50;99.90;;;;;;5036400;28;20077;-26
2022/09/15 09:07:09;;;;;;;7.88;1.10;;;16.80;1.00;;;;;;5019068;28;20053;-26
2022/09/15 09:09:42;;;;;;;6.82;1.35;;;16.70;1.00;;;;;;5036307;28;20423;-26
2022/09/15 09:12:32;;;;;;;9.10;1.10;;;17.00;1.00;;;;;;5036248;28;20391;-26
2022/09/15 09:14:57;;;;;;;7.38;1.35;;;17.50;99.90;;;;;;5035637;28;20395;-27
2022/09/15 09:17:45;;;;;;;4.97;1.00;;;17.50;99.90;;;;;;5034867;28;20045;-26
2022/09/15 09:20:30;;;;;;;8.13;1.27;;;17.40;99.90;;;;;;5036425;28;20049;-27
2022/09/15 09:22:57;;;;;;;5.80;1.35;;;;;;;;;;5035440;28;20046;-25
2022/09/15 09:25:25;;;;;;;8.63;1.38;;;;;;;;;;5035090;28;20136;-25
2022/09/15 09:27:51;;;;;;;11.68;1.30;;;14.10;1.00;;;;;;5018249;28;20057;-25
2022/09/15 09:30:22;;;;;;;13.93;1.77;;;13.70;99.90;;;;;;5035887;28;20049;-26
2022/09/15 09:33:10;;;;;;;8.18;1.10;;;13.50;99.90;;;;;;5035517;28;20120;-26
2022/09/15 09:35:56;;;;;;;7.18;1.23;;;13.50;59.50;;;;;;5036152;28;20046;-27
2022/09/15 09:38:36;;;;;;;6.38;1.20;;;13.70;1.00;;;;;;5036104;28;20079;-26
2022/09/15 09:41:17;;;;;;;6.38;1.33;;;13.90;99.90;;;;;;5035620;28;20062;-26
2022/09/15 09:43:46;;;;;;;4.75;0.88;;;14.20;99.90;;;;;;5035433;28;20059;-27
2022/09/15 09:46:17;;;;;;;3.78;0.63;;;14.40;99.90;;;;;;5035301;28;20468;-27
2022/09/15 09:49:04;;;;;;;7.65;1.08;;;14.50;1.00;;;;;;5035849;28;20093;-26
2022/09/15 09:51:31;;;;;;;4.88;0.80;;;;;;;;;;5035758;28;20041;-27
2022/09/15 09:54:15;;;;;;;7.57;1.05;;;;;;;;;;5034521;28;20056;-27
2022/09/15 09:56:44;;;;;;;;;;;17.30;1.00;;;;;;5034928;28;20108;-27
2022/09/15 09:59:38;;;;;;;6.03;0.85;;;17.20;1.00;;;;;;5035897;28;19975;-28
2022/09/15 10:02:10;;;;;;;4.68;0.73;;;18.30;16.30;;;;;;5034992;28;20045;-29
2022/09/15 10:04:37;;;;;;;4.97;0.77;;;19.00;99.90;;;;;;5035515;28;20070;-28
2022/09/15 10:07:03;;;;;;;3.47;0.80;;;19.10;99.90;;;;;;5034914;28;20071;-28
2022/09/15 10:09:29;;;;;;;6.18;0.80;;;19.40;99.90;;;;;;5035405;28;20373;-28
2022/09/15 10:11:57;;;;;;;5.72;0.98;;;19.20;1.00;;;;;;5034758;28;20095;-28
2022/09/15 10:14:40;;;;;;;3.90;0.63;;;18.60;1.00;;;;;;5035068;28;20124;-28
2022/09/15 10:17:08;;;;;;;3.97;0.65;;;17.80;99.90;;;;;;5034140;28;20088;-29
2022/09/15 10:19:47;;;;;;;4.22;0.68;;;17.20;99.90;;;;;;5034678;28;20579;-28
2022/09/15 10:22:36;;;;;;;4.65;0.82;;;16.70;1.00;;;;;;5034693;28;20124;-29
2022/09/15 10:25:25;;;;;;;3.63;0.77;;;16.50;1.00;;;;;;5033769;28;20045;-28
2022/09/15 10:28:16;;;;;;;6.30;0.75;;;16.10;99.90;;;;;;5034776;28;20056;-28
2022/09/15 10:30:58;;;;;;;6.22;1.20;;;15.80;55.70;;;;;;5035081;28;20049;-28
2022/09/15 10:33:27;;;;;;;4.57;0.60;;;15.50;99.90;;;;;;5034373;28;20120;-27
2022/09/15 10:35:54;;;;;;;4.57;0.60;;;15.30;99.90;;;;;;5034454;28;20065;-28
2022/09/15 10:38:48;;;;;;;2.90;0.40;;;15.20;99.90;;;;;;5034402;28;20398;-27
2022/09/15 10:41:16;;;;;;;;;;;15.30;99.90;;;;;;5034708;28;20057;-27
2022/09/15 10:44:33;;;;;;;3.92;0.60;;;15.30;99.90;;;;;;5034319;28;20294;-28
2022/09/15 10:47:23;;;;;;;3.45;0.50;;;15.40;99.90;;;;;;5022342;28;20092;-28
2022/09/15 10:50:00;;;;;;;4.05;0.82;;;15.50;1.00;;;;;;5034786;28;20050;-27
2022/09/15 10:52:32;;;;;;;4.97;1.27;;;15.70;99.90;;;;;;5034096;28;20046;-27
2022/09/15 10:55:24;;;;;;;3.47;0.40;;;16.00;99.90;;;;;;5033130;28;20046;-28
2022/09/15 10:58:00;;;;;;;2.95;0.57;;;16.30;99.90;;;;;;5033424;28;20053;-27
2022/09/15 11:00:39;;;;;;;6.32;0.75;;;16.50;99.90;;;;;;5034616;28;20085;-27
2022/09/15 11:03:24;;;;;;;4.00;0.90;;;16.60;1.00;;;;;;5033393;28;20095;-28
2022/09/15 11:06:16;;;;;;;6.90;1.27;;;16.50;1.00;;;;;;5034454;28;20049;-27
2022/09/15 11:09:14;;;;;;;6.85;0.90;;;16.50;99.90;;;;;;5032790;28;20046;-28
2022/09/15 11:12:06;;;;;;;6.75;1.45;;;16.40;99.90;;;;;;5030860;28;20072;-27
2022/09/15 11:14:53;;;;;;;5.75;0.90;;;16.50;1.00;;;;;;5034745;28;20479;-27
2022/09/15 11:17:50;;;;;;;5.72;1.20;;;16.90;1.00;;;;;;5033779;28;20081;-29
2022/09/15 11:20:34;;;;;;;5.47;0.88;;;17.30;99.90;;;;;;5034356;28;20468;-27
2022/09/15 11:23:27;;;;;;;4.63;0.73;;;17.30;1.00;;;;;;5034007;28;20099;-27
2022/09/15 11:25:56;;;;;;;;;;;17.30;99.90;;;;;;5034992;28;20053;-27
2022/09/15 11:28:47;;;;;;;4.55;1.20;;;17.30;99.90;;;;;;5033662;28;20020;-27
2022/09/15 11:31:38;;;;;;;4.80;0.77;;;17.70;99.90;;;;;;5034150;28;20053;-27
2022/09/15 11:34:10;;;;;;;3.53;0.80;;;17.90;99.90;;;;;;5027911;28;20065;-28
2022/09/15 11:36:54;;;;;;;4.30;0.70;;;18.10;99.90;;;;;;5034147;28;20550;-27
2022/09/15 11:39:26;;;;;;;6.45;1.08;;;18.50;99.90;;;;;;5037719;28;20085;-26
2022/09/15 11:41:59;;;;;;;;;;;18.50;99.90;;;;;;5037567;28;20072;-27
2022/09/15 11:44:38;;;;;;;7.05;1.65;;;18.30;1.00;;;;;;5038456;28;20260;-27
2022/09/15 11:47:15;;;;;;;7.07;0.95;;;18.20;1.00;;;;;;5038071;28;20059;-27
2022/09/15 11:49:41;;;;;;;5.57;0.73;;;17.70;1.00;;;;;;5037287;28;20507;-27
2022/09/15 11:52:15;;;;;;;5.28;0.85;;;17.30;1.00;;;;;;5036303;28;20049;-27
2022/09/15 11:54:52;;;;;;;6.70;0.98;;;17.10;99.90;;;;;;5037493;28;20091;-27
2022/09/15 11:57:25;;;;;;;3.90;0.70;;;17.30;99.90;;;;;;5038054;28;20052;-28
2022/09/15 12:00:09;;;;;;;4.53;0.47;;;17.40;99.90;;;;;;5037421;28;20072;-28
2022/09/15 12:02:59;;;;;;;4.25;0.70;;;17.90;99.90;;;;;;5037839;28;20133;-27
2022/09/15 12:05:54;;;;;;;4.93;0.88;;;18.10;68.20;;;;;;5037850;28;20045;-28
2022/09/15 12:08:42;;;;;;;5.10;0.80;;;18.20;98.00;;;;;;5037091;28;20049;-27
2022/09/15 12:11:16;;;;;;;4.03;0.68;;;18.20;99.90;;;;;;5036815;28;20515;-27
2022/09/15 12:13:42;;;;;;;5.97;1.02;;;18.30;99.90;;;;;;5037185;28;20064;-27
2022/09/15 12:16:09;;;;;;;5.47;0.77;;;17.90;99.90;;;;;;5037564;28;20049;-27
2022/09/15 12:18:52;;;;;;;2.58;0.43;;;17.50;1.00;;;;;;5036979;28;20053;-27
2022/09/15 12:21:45;;;;;;;5.90;0.90;;;17.10;99.90;;;;;;5037027;28;20053;-27
2022/09/15 12:24:22;;;;;;;3.83;0.70;;;16.70;99.90;;;;;;5036977;28;20057;-27
2022/09/15 12:26:48;;;;;;;4.32;0.70;;;16.60;1.00;;;;;;5019793;28;20048;-28
2022/09/15 12:29:25;;;;;;;3.10;0.68;;;16.50;99.90;;;;;;5036817;28;20080;-27
2022/09/15 12:32:10;;;;;;;4.68;0.60;;;16.60;1.00;;;;;;5036776;28;20088;-28
2022/09/15 12:34:37;;;;;;;5.53;0.73;;;16.70;1.00;;;;;;5037261;28;20132;-27
2022/09/15 12:37:12;;;;;;;3.45;0.60;;;16.70;1.00;;;;;;5035726;28;20065;-27
2022/09/15 12:39:40;;;;;;;3.95;0.50;;;16.80;1.00;;;;;;5036178;28;20098;-27
2022/09/15 12:42:19;;;;;;;6.20;1.10;;;16.80;1.00;;;;;;5036969;28;20061;-27
2022/09/15 12:45:18;;;;;;;4.60;1.23;;;16.90;99.90;;;;;;5037143;28;20072;-27
2022/09/15 12:48:13;;;;;;;6.32;1.55;;;17.10;1.00;;;;;;5035718;28;20090;-27
2022/09/15 12:50:42;;;;;;;6.93;1.08;;;17.40;99.90;;;;;;5036344;28;20392;-27
2022/09/15 12:53:25;;;;;;;3.88;0.98;;;17.40;99.90;;;;;;5037417;28;20039;-27
2022/09/15 12:55:54;;;;;;;4.60;1.00;;;17.30;99.90;;;;;;5036958;28;20129;-28
2022/09/15 12:58:40;;;;;;;2.38;0.52;;;17.10;99.90;;;;;;5036285;28;20391;-27
2022/09/15 13:01:17;;;;;;;5.45;0.88;;;17.30;99.90;;;;;;5036720;28;20468;-27
2022/09/15 13:03:47;;;;;;;6.13;1.10;;;17.60;83.00;;;;;;5036169;28;20054;-27
2022/09/15 13:06:20;;;;;;;6.13;0.70;;;17.70;1.00;;;;;;5036140;28;20517;-27
2022/09/15 13:09:24;;;;;;;3.78;0.93;;;17.50;39.90;;;;;;5034872;28;20096;-27
2022/09/15 13:11:53;;;;;;;7.13;1.65;;;17.20;1.00;;;;;;5035201;28;20492;-26
2022/09/15 13:14:25;;;;;;;11.02;1.75;;;16.50;99.90;;;;;;5035827;28;20053;-27
2022/09/15 13:17:11;;;;;;;4.63;1.10;;;16.00;99.90;;;;;;5035997;28;20487;-27
2022/09/15 13:19:45;;;;;;;3.58;0.70;;;15.50;99.90;;;;;;5035315;28;20276;-27
2022/09/15 13:22:11;;;;;;;3.38;0.77;;;15.40;99.90;;;;;;5036419;28;20099;-27
2022/09/15 13:24:55;;;;;;;3.55;0.50;;;15.30;1.00;;;;;;5035753;28;20049;-27